Detall de PIREP

Printer-friendly versionPDF version

[2010/12/28 23:03:00]
Flight IATA:CT2115
Pilot Number:026
Company ICAO:CAT
Aircraft Type:DC85/A
PAX:136
Departing Airport: LEVD
Destination Airport: LEVC
Alternate Airport:LEPA
Online: VATSIM
Route:ZMR UL155 KALMA UH100 CJN UN733 PRADO/N0401F240 A33 CENTA
Flight Level:FL260
No Slew and time accel
No pause
Crash detect
Detect pilot in Cockpit between each 30 and 45 minutes
23:03 Zero fuel Weight: 176691 Lbs, Fuel Weight: 27001 Lbs
23:03 VATSIM:LEVD 282200Z VRB03KT CAVOK 03/03 Q1016
23:03 VATSIM:LEVC 282230Z 29003KT CAVOK 05/04 Q1020 NOSIG
23:04 VOICE CATALONIAN / LEVC HUB ROUTE CT2115
23:12 Parking Brakes off
23:19 Take-off
23:19 Take off Weight: 202460 Lbs
23:19 Wind: 135º @ 001 Knots Heading: 224º
23:19 POS N41º 41´ 54´´ W004º 51´ 45´´
23:19 Gear Up: 170 Knots
23:19 Flaps:3 at 170 Knots
23:20 Flaps:2 at 173 Knots
23:21 Flaps:1 at 177 Knots
23:21 Flaps:0 at 186 Knots
23:34 Wind:100º@001 Knots Heading: 137º Ground Speed: 412 Knots Altitude 24730 ft
23:35 TOC
23:35 Fuel Weight: 21189 Lb
23:49 Wind:024º@007 Knots Heading: 090º Ground Speed: 451 Knots Altitude 26167 ft
23:53 TOD
23:53 Fuel Weight: 16825 Lb
00:04 Wind:279º@009 Knots Heading: 152º Ground Speed: 400 Knots Altitude 16732 ft
00:13 Gear Down: 204 Knots
00:13 Flaps:1 at 203 Knots
00:15 Flaps:2 at 134 Knots
00:15 Flaps:3 at 164 Knots
00:16 Flaps:4 at 141 Knots
00:17 Flaps:5 at 136 Knots
00:17 TouchDown:Rate -149 ft/min Speed: 121 Knots
00:17 VATSIM:LEVC 290000Z 30003KT CAVOK 05/04 Q1020 NOSIG
00:17 Land
00:17 Wind:303º@003 Knots
00:17 Heading: 296º
00:17 Flight Duration: 00:58
00:17 Landing Weight: 190537 Lbs
00:17 POS N39º 29´ 25´´ W000º 29´ 04´´
00:23 Parking brakes on
00:23 Block to Block Duration: 01:11
00:23 Final Fuel: 13401 Lbls
00:23 Spent Fuel: 13600 Lbls
00:23 Flight Length: 355 NM
00:23 TOD Land Length: 130 NM

Exportar CSV

Powered by Drupal - Modified by Danger4k